createdAt,value
2024-02-07T00:02:31.024Z,100219.19
2024-02-07T00:05:33.708Z,100230.00
2024-02-07T00:08:36.381Z,100229.34
2024-02-07T00:11:38.803Z,100226.22
2024-02-07T00:14:40.974Z,100227.72
2024-02-07T00:17:43.243Z,100220.69
2024-02-07T00:20:46.004Z,100213.97
2024-02-07T00:23:48.172Z,100212.03
2024-02-07T00:26:50.377Z,100214.66
2024-02-07T00:29:52.688Z,100212.84
2024-02-07T00:32:55.095Z,100208.44
2024-02-07T00:35:57.308Z,100205.66
2024-02-07T00:39:00.874Z,100196.00
2024-02-07T00:42:03.106Z,100194.03
2024-02-07T00:45:06.016Z,100191.09
2024-02-07T00:48:08.588Z,100188.47
2024-02-07T00:51:11.132Z,100189.72
2024-02-07T00:54:19.293Z,100189.72
2024-02-07T00:57:21.455Z,100195.13
2024-02-07T01:00:25.552Z,100188.09
2024-02-07T01:03:28.094Z,100187.56
2024-02-07T01:06:35.213Z,100184.00
2024-02-07T01:09:37.840Z,100172.75
2024-02-07T01:12:40.127Z,100171.75
2024-02-07T01:15:44.846Z,100175.03
2024-02-07T01:18:50.579Z,100170.41
2024-02-07T01:21:53.401Z,100159.91
2024-02-07T01:24:56.692Z,100159.91
2024-02-07T01:27:58.975Z,100159.38
2024-02-07T01:31:01.235Z,100164.59
2024-02-07T01:34:03.710Z,100161.31
2024-02-07T01:37:06.876Z,100157.88
2024-02-07T01:40:11.943Z,100154.63
2024-02-07T01:43:14.541Z,100150.88
2024-02-07T01:46:17.315Z,100148.78
2024-02-07T01:49:20.280Z,100148.94
2024-02-07T01:52:25.289Z,100143.53
2024-02-07T01:55:30.235Z,100140.75
2024-02-07T01:58:32.509Z,100145.78
2024-02-07T02:01:35.645Z,100148.53
2024-02-07T02:04:38.799Z,100145.84
2024-02-07T02:07:42.294Z,100145.81
2024-02-07T02:10:44.910Z,100147.44
2024-02-07T02:13:48.035Z,100146.13
2024-02-07T02:16:50.291Z,100140.75
2024-02-07T02:19:52.874Z,100121.81
2024-02-07T02:23:07.227Z,100137.47
2024-02-07T02:26:15.541Z,100137.31
2024-02-07T02:29:22.758Z,100134.53
2024-02-07T02:32:27.191Z,100134.06
2024-02-07T02:35:33.420Z,100125.63
2024-02-07T02:38:39.037Z,100128.41
2024-02-07T02:41:41.385Z,100120.59
2024-02-07T02:44:43.664Z,100109.19
2024-02-07T02:47:47.289Z,100108.03
2024-02-07T02:50:50.135Z,100114.22
2024-02-07T02:53:54.207Z,100115.34
2024-02-07T02:57:01.373Z,100107.38
2024-02-07T03:00:08.178Z,100091.88
2024-02-07T03:03:11.198Z,100099.19
2024-02-07T03:06:30.294Z,100104.78
2024-02-07T03:09:34.453Z,100103.97
2024-02-07T03:12:37.336Z,100101.50
2024-02-07T03:15:40.563Z,100099.53
2024-02-07T03:18:44.586Z,100097.41
2024-02-07T03:21:48.073Z,100100.13
2024-02-07T03:24:57.097Z,100104.66
2024-02-07T03:27:59.548Z,100093.34
2024-02-07T03:31:01.903Z,100093.44
2024-02-07T03:34:04.640Z,100096.63
2024-02-07T03:37:07.053Z,100103.75
2024-02-07T03:40:16.544Z,100089.28
2024-02-07T03:43:22.095Z,100096.78
2024-02-07T03:46:25.437Z,100092.56
2024-02-07T03:49:30.802Z,100098.56
2024-02-07T03:52:36.020Z,100107.66
2024-02-07T03:55:39.388Z,100093.44
2024-02-07T03:58:44.370Z,100089.06
2024-02-07T04:01:47.018Z,100084.00
2024-02-07T04:04:57.485Z,100081.47
2024-02-07T04:08:05.177Z,100057.63
2024-02-07T04:11:11.772Z,100080.09
2024-02-07T04:14:14.225Z,100054.81
2024-02-07T04:17:35.325Z,100066.31
2024-02-07T04:20:56.275Z,100074.06
2024-02-07T04:24:18.918Z,100073.75
2024-02-07T04:27:42.153Z,100050.50
2024-02-07T04:31:03.856Z,100073.91
2024-02-07T04:34:30.542Z,100067.53
2024-02-07T04:37:52.425Z,100068.72
2024-02-07T04:41:13.968Z,100062.59
2024-02-07T04:44:38.524Z,100078.72
2024-02-07T04:48:01.148Z,100047.72
2024-02-07T04:51:36.979Z,100053.59
2024-02-07T04:55:01.430Z,100045.69
2024-02-07T04:58:22.533Z,100068.03
2024-02-07T05:01:44.156Z,100053.94
2024-02-07T05:05:04.998Z,100077.13
2024-02-07T05:12:04.331Z,100052.44
2024-02-07T05:15:06.821Z,100068.03
2024-02-07T05:18:09.994Z,100054.34
2024-02-07T05:21:17.549Z,100042.56
2024-02-07T05:24:21.137Z,100061.94
2024-02-07T05:27:33.025Z,100051.75
2024-02-07T05:30:41.740Z,100053.69
2024-02-07T05:33:57.002Z,100035.19
2024-02-07T05:37:10.413Z,100050.78
2024-02-07T05:40:16.686Z,100052.06
2024-02-07T05:43:29.934Z,100054.94
2024-02-07T05:46:46.788Z,100045.59
2024-02-07T05:49:59.569Z,100033.31
2024-02-07T05:53:02.503Z,100041.22
2024-02-07T05:56:09.753Z,100057.34
2024-02-07T05:59:20.838Z,100046.81
2024-02-07T06:02:25.583Z,100049.25
2024-02-07T06:05:28.890Z,100049.09
2024-02-07T06:08:36.975Z,100028.97
2024-02-07T06:11:43.470Z,100050.13
2024-02-07T06:14:47.557Z,100060.00
2024-02-07T06:17:51.424Z,100066.69
2024-02-07T06:20:55.248Z,100042.50
2024-02-07T06:24:20.673Z,100070.13
2024-02-07T06:27:34.054Z,100029.28
2024-02-07T06:30:45.580Z,100044.34
2024-02-07T06:34:06.240Z,100034.03
2024-02-07T06:37:13.057Z,100051.56
2024-02-07T06:40:26.615Z,100055.22
2024-02-07T06:43:31.772Z,100071.28
2024-02-07T06:46:39.517Z,100060.41
2024-02-07T06:50:10.525Z,100066.59
2024-02-07T06:53:27.507Z,100081.97
2024-02-07T06:56:51.396Z,100081.00
2024-02-07T07:09:34.970Z,100063.25
2024-02-07T07:40:57.100Z,100023.56
2024-02-07T08:22:31.108Z,100001.91
2024-02-07T08:30:14.976Z,100010.50
2024-02-07T08:48:45.460Z,99993.63
2024-02-07T08:52:05.448Z,99969.84
2024-02-07T09:28:04.332Z,99958.66
2024-02-07T09:46:16.355Z,99941.22
2024-02-07T10:24:54.721Z,99872.91
2024-02-07T10:28:08.335Z,99872.75
2024-02-07T10:31:14.524Z,99865.56
2024-02-07T10:34:26.103Z,99870.19
2024-02-07T10:37:42.192Z,99812.78
2024-02-07T10:40:46.008Z,99844.91
2024-02-07T10:43:55.943Z,99821.66
2024-02-07T10:47:01.497Z,99839.13
2024-02-07T10:50:13.526Z,99821.13
2024-02-07T10:53:16.493Z,99833.00
2024-02-07T10:56:26.884Z,99805.09
2024-02-07T11:13:27.814Z,99803.75
2024-02-07T12:37:32.350Z,99718.72
2024-02-07T12:41:11.985Z,99709.44
2024-02-07T12:44:29.012Z,99719.72
2024-02-07T12:58:19.106Z,99695.53
2024-02-07T13:01:58.696Z,99695.75
2024-02-07T13:05:02.293Z,99667.81
2024-02-07T13:08:15.295Z,99684.00
2024-02-07T13:21:15.970Z,99681.53
2024-02-07T13:25:07.204Z,99669.19
2024-02-07T13:28:26.764Z,99666.56
2024-02-07T13:31:37.041Z,99684.75
2024-02-07T13:34:52.779Z,99684.56
2024-02-07T13:38:01.910Z,99681.53
2024-02-07T13:41:37.054Z,99651.44
2024-02-07T13:44:41.738Z,99662.31
2024-02-07T13:47:47.943Z,99662.13
2024-02-07T13:50:52.421Z,99658.69
2024-02-07T13:53:58.168Z,99663.13
2024-02-07T13:57:15.660Z,99660.72
2024-02-07T14:00:27.637Z,99656.09
2024-02-07T14:03:36.680Z,99648.63
2024-02-07T14:06:41.152Z,99659.53
2024-02-07T14:09:45.459Z,99657.91
2024-02-07T14:12:49.635Z,99655.91
2024-02-07T14:15:58.303Z,99657.31
2024-02-07T14:19:01.364Z,99650.44
2024-02-07T14:22:04.928Z,99649.41
2024-02-07T14:25:13.966Z,99636.25
2024-02-07T14:28:16.778Z,99641.13
2024-02-07T14:31:22.961Z,99631.19
2024-02-07T14:34:25.966Z,99637.47
2024-02-07T14:37:29.310Z,99627.56
2024-02-07T14:40:35.047Z,99616.06
2024-02-07T14:43:38.220Z,99615.44
2024-02-07T14:46:41.778Z,99621.91
2024-02-07T14:49:44.727Z,99624.94
2024-02-07T14:52:50.446Z,99624.53
2024-02-07T14:55:59.942Z,99617.06
2024-02-07T14:59:07.153Z,99616.06
2024-02-07T15:02:14.022Z,99614.22
2024-02-07T15:05:17.272Z,99616.84
2024-02-07T15:08:23.275Z,99610.59
2024-02-07T15:11:27.252Z,99606.34
2024-02-07T15:14:33.040Z,99580.69
2024-02-07T15:17:35.982Z,99599.47
2024-02-07T15:20:41.976Z,99590.38
2024-02-07T15:23:44.777Z,99592.19
2024-02-07T15:26:55.170Z,99599.47
2024-02-07T15:30:05.124Z,99594.59
2024-02-07T15:33:08.178Z,99580.44
2024-02-07T15:36:15.287Z,99569.09
2024-02-07T15:39:18.921Z,99579.78
2024-02-07T15:42:26.757Z,99579.00
2024-02-07T15:45:30.226Z,99570.69
2024-02-07T15:48:47.529Z,99562.56
2024-02-07T15:51:53.717Z,99575.44
2024-02-07T15:54:57.705Z,99579.06
2024-02-07T15:58:03.545Z,99571.38
2024-02-07T16:01:10.099Z,99580.69
2024-02-07T16:04:17.874Z,99582.88
2024-02-07T16:07:30.882Z,99574.78
2024-02-07T16:10:33.707Z,99587.06
2024-02-07T16:13:40.213Z,99576.13
2024-02-07T16:16:46.956Z,99581.56
2024-02-07T16:19:54.968Z,99572.19
2024-02-07T16:22:58.589Z,99595.66
2024-02-07T16:26:04.308Z,99591.97
2024-02-07T16:29:13.752Z,99566.03
2024-02-07T16:32:22.423Z,99589.91
2024-02-07T16:35:25.838Z,99574.28
2024-02-07T16:38:31.870Z,99581.25
2024-02-07T16:41:37.391Z,99570.13
2024-02-07T16:44:43.628Z,99586.09
2024-02-07T16:47:53.842Z,99588.72
2024-02-07T16:51:00.561Z,99577.22
2024-02-07T16:54:04.705Z,99594.56
2024-02-07T16:57:18.246Z,99586.94
2024-02-07T17:00:23.933Z,99585.84
2024-02-07T17:03:26.453Z,99592.44
2024-02-07T17:06:35.252Z,99597.16
2024-02-07T17:09:40.377Z,99589.66
2024-02-07T17:12:45.702Z,99593.16
2024-02-07T17:15:49.157Z,99596.78
2024-02-07T17:19:00.589Z,99592.72
2024-02-07T17:22:04.385Z,99588.66
2024-02-07T17:25:08.726Z,99600.03
2024-02-07T17:28:12.125Z,99593.06
2024-02-07T17:31:14.942Z,99599.44
2024-02-07T17:34:18.082Z,99596.63
2024-02-07T17:37:26.164Z,99588.53
2024-02-07T17:40:28.758Z,99594.28
2024-02-07T17:43:47.649Z,99589.34
2024-02-07T17:46:54.131Z,99569.38
2024-02-07T17:49:57.078Z,99589.81
2024-02-07T17:53:00.921Z,99575.69
2024-02-07T17:56:14.076Z,99582.56
2024-02-07T17:59:17.196Z,99575.56
2024-02-07T18:02:22.332Z,99568.22
2024-02-07T18:05:27.083Z,99549.31
2024-02-07T18:08:29.911Z,99559.63
2024-02-07T18:11:34.015Z,99555.75
2024-02-07T18:14:36.362Z,99554.16
2024-02-07T18:17:39.810Z,99550.31
2024-02-07T18:20:42.177Z,99559.91
2024-02-07T18:23:47.544Z,99557.25
2024-02-07T18:26:50.826Z,99541.75
2024-02-07T18:29:53.165Z,99553.69
2024-02-07T18:32:55.755Z,99550.84
2024-02-07T18:35:58.804Z,99542.53
2024-02-07T18:39:01.578Z,99546.81
2024-02-07T18:42:03.935Z,99548.84
2024-02-07T18:45:07.318Z,99538.13
2024-02-07T18:48:10.392Z,99542.53
2024-02-07T18:51:13.374Z,99533.66
2024-02-07T18:54:21.034Z,99535.31
2024-02-07T18:57:23.907Z,99553.03
2024-02-07T19:00:26.379Z,99547.09
2024-02-07T19:03:30.365Z,99547.66
2024-02-07T19:06:33.016Z,99542.97
2024-02-07T19:09:36.180Z,99532.69
2024-02-07T19:12:38.767Z,99538.31
2024-02-07T19:15:42.864Z,99544.59
2024-02-07T19:18:45.262Z,99538.41
2024-02-07T19:21:49.329Z,99532.69
2024-02-07T19:24:54.535Z,99542.59
2024-02-07T19:27:59.968Z,99543.50
2024-02-07T19:31:02.437Z,99543.50
2024-02-07T19:34:05.145Z,99546.25
2024-02-07T19:37:07.650Z,99535.28
2024-02-07T19:40:11.077Z,99535.47
2024-02-07T19:43:14.049Z,99542.69
2024-02-07T19:46:16.702Z,99532.75
2024-02-07T19:49:19.552Z,99533.34
2024-02-07T19:52:22.555Z,99533.34
2024-02-07T19:55:25.581Z,99532.53
2024-02-07T19:58:28.756Z,99534.78
2024-02-07T20:01:31.682Z,99538.00
2024-02-07T20:04:38.071Z,99535.16
2024-02-07T20:07:41.076Z,99524.28
2024-02-07T20:10:44.122Z,99532.34
2024-02-07T20:13:46.723Z,99529.31
2024-02-07T20:16:49.431Z,99518.94
2024-02-07T20:19:51.997Z,99533.31
2024-02-07T20:22:54.963Z,99522.28
2024-02-07T20:26:05.467Z,99532.97
2024-02-07T20:29:09.553Z,99536.47
2024-02-07T20:32:12.823Z,99529.97
2024-02-07T20:35:16.193Z,99532.78
2024-02-07T20:38:18.560Z,99514.41
2024-02-07T20:41:21.650Z,99534.03
2024-02-07T20:44:25.453Z,99510.38
2024-02-07T20:47:29.091Z,99530.16
2024-02-07T20:50:32.133Z,99533.75
2024-02-07T20:53:34.547Z,99527.44
2024-02-07T20:56:42.539Z,99532.69
2024-02-07T20:59:45.042Z,99519.44
2024-02-07T21:02:47.716Z,99525.72
2024-02-07T21:05:55.051Z,99529.72
2024-02-07T21:08:57.614Z,99518.84
2024-02-07T21:12:00.534Z,99525.63
2024-02-07T21:15:03.206Z,99515.59
2024-02-07T21:18:06.359Z,99528.31
2024-02-07T21:21:09.036Z,99516.28
2024-02-07T21:24:11.121Z,99517.09
2024-02-07T21:27:14.254Z,99526.00
2024-02-07T21:30:19.734Z,99513.06
2024-02-07T21:33:22.412Z,99516.28
2024-02-07T21:36:24.891Z,99515.59
2024-02-07T21:39:27.210Z,99509.13
2024-02-07T21:42:30.293Z,99504.56
2024-02-07T21:45:33.963Z,99503.75
2024-02-07T21:48:36.471Z,99509.25
2024-02-07T21:51:38.906Z,99497.97
2024-02-07T21:54:42.494Z,99486.88
2024-02-07T21:57:48.228Z,99505.75
2024-02-07T22:00:51.968Z,99498.59
2024-02-07T22:03:54.632Z,99508.69
2024-02-07T22:06:57.357Z,99508.72
2024-02-07T22:10:00.153Z,99508.69
2024-02-07T22:13:03.208Z,99510.66
2024-02-07T22:16:07.606Z,99505.38
2024-02-07T22:19:10.527Z,99502.22
2024-02-07T22:22:16.620Z,99510.63
2024-02-07T22:28:37.839Z,99508.44
2024-02-07T22:31:41.277Z,99490.63
2024-02-07T22:34:46.279Z,99489.91
2024-02-07T22:37:48.539Z,99493.88
2024-02-07T22:40:50.911Z,99498.56
2024-02-07T22:43:52.943Z,99490.47
2024-02-07T22:46:56.303Z,99484.41
2024-02-07T22:50:04.591Z,99475.38
2024-02-07T22:53:07.686Z,99460.09
2024-02-07T22:56:13.818Z,99470.63
2024-02-07T22:59:22.059Z,99488.91
2024-02-07T23:02:25.154Z,99484.50
2024-02-07T23:05:27.688Z,99483.59
2024-02-07T23:08:30.682Z,99493.34
2024-02-07T23:11:39.274Z,99496.72
2024-02-07T23:14:45.117Z,99503.66
2024-02-07T23:17:48.227Z,99499.50
2024-02-07T23:20:51.887Z,99495.63
2024-02-07T23:23:54.642Z,99504.72
2024-02-07T23:26:56.999Z,99502.22
2024-02-07T23:29:59.584Z,99506.63
2024-02-07T23:33:03.197Z,99518.69
2024-02-07T23:36:06.334Z,99497.59
2024-02-07T23:39:08.824Z,99505.19
2024-02-07T23:42:21.599Z,99503.66
2024-02-07T23:45:24.987Z,99492.19
2024-02-07T23:48:28.750Z,99495.81
2024-02-07T23:51:40.126Z,99499.25
2024-02-07T23:54:47.812Z,99499.13
2024-02-07T23:57:50.805Z,99487.63
